Time,TemperatureF,DewpointF,PressureIn,WindDirection,WindDirectionDegrees,WindSpeedMPH,WindSpeedGustMPH,Humidity,HourlyPrecipIn,Conditions,Clouds,dailyrainin,SoftwareType,DateUTC
2013-01-28 00:01:00,33.0,-99.9,-100.00,South,183,3.0,7.0,-999,-99.99,,,-99.99,,2013-01-28 08:01:00,
2013-01-28 00:11:00,33.0,-99.9,-100.00,South,183,3.0,7.0,-999,-99.99,,,-99.99,,2013-01-28 08:11:00,
2013-01-28 01:02:00,32.0,-99.9,-100.00,North,360,3.0,5.0,-999,-99.99,,,-99.99,,2013-01-28 09:02:00,
2013-01-28 01:12:00,32.0,-99.9,-100.00,North,360,3.0,5.0,-999,-99.99,,,-99.99,,2013-01-28 09:12:00,
2013-01-28 03:03:00,31.0,-99.9,-100.00,NNW,347,3.0,5.0,-999,-99.99,,,-99.99,,2013-01-28 11:03:00,
2013-01-28 03:12:00,31.0,-99.9,-100.00,NNW,347,3.0,5.0,-999,-99.99,,,-99.99,,2013-01-28 11:12:00,
2013-01-28 04:04:00,30.0,-99.9,-100.00,South,187,2.0,3.0,-999,-99.99,,,-99.99,,2013-01-28 12:04:00,
2013-01-28 04:12:00,30.0,-99.9,-100.00,South,187,2.0,3.0,-999,-99.99,,,-99.99,,2013-01-28 12:12:00,
2013-01-28 05:03:00,31.0,-99.9,-100.00,NNE,12,3.0,3.0,-999,-99.99,,,-99.99,,2013-01-28 13:03:00,
2013-01-28 05:12:00,31.0,-99.9,-100.00,NNE,12,3.0,3.0,-999,-99.99,,,-99.99,,2013-01-28 13:12:00,
2013-01-28 06:03:00,31.0,-99.9,-100.00,South,183,6.0,10.0,-999,-99.99,,,-99.99,,2013-01-28 14:03:00,
2013-01-28 06:12:00,31.0,-99.9,-100.00,South,183,6.0,10.0,-999,-99.99,,,-99.99,,2013-01-28 14:12:00,
2013-01-28 07:03:00,31.0,-99.9,-100.00,SSW,208,2.0,3.0,-999,-99.99,,,-99.99,,2013-01-28 15:03:00,
2013-01-28 07:13:00,31.0,-99.9,-100.00,SSW,208,2.0,3.0,-999,-99.99,,,-99.99,,2013-01-28 15:13:00,
2013-01-28 08:04:00,28.0,-99.9,-100.00,SSW,203,7.0,9.0,-999,-99.99,,,-99.99,,2013-01-28 16:04:00,
2013-01-28 08:13:00,28.0,-99.9,-100.00,SSW,203,7.0,9.0,-999,-99.99,,,-99.99,,2013-01-28 16:13:00,
2013-01-28 09:02:00,29.0,-99.9,-100.00,SSW,208,3.0,7.0,-999,-99.99,,,-99.99,,2013-01-28 17:02:00,
2013-01-28 09:12:00,29.0,-99.9,-100.00,SSW,208,3.0,7.0,-999,-99.99,,,-99.99,,2013-01-28 17:12:00,
2013-01-28 10:03:00,30.0,-99.9,-100.00,SW,224,3.0,3.0,-999,-99.99,,,-99.99,,2013-01-28 18:03:00,
2013-01-28 10:13:00,30.0,-99.9,-100.00,SW,224,3.0,3.0,-999,-99.99,,,-99.99,,2013-01-28 18:13:00,
2013-01-28 11:03:00,30.0,-99.9,-100.00,SE,131,3.0,6.0,-999,-99.99,,,-99.99,,2013-01-28 19:03:00,
2013-01-28 11:13:00,30.0,-99.9,-100.00,SE,131,3.0,6.0,-999,-99.99,,,-99.99,,2013-01-28 19:13:00,
2013-01-28 12:03:00,34.0,-99.9,-100.00,SSW,195,3.0,7.0,-999,-99.99,,,-99.99,,2013-01-28 20:03:00,
2013-01-28 12:12:00,34.0,-99.9,-100.00,SSW,195,3.0,7.0,-999,-99.99,,,-99.99,,2013-01-28 20:12:00,
2013-01-28 13:04:00,34.0,-99.9,-100.00,SE,140,3.0,6.0,-999,-99.99,,,-99.99,,2013-01-28 21:04:00,
2013-01-28 13:12:00,34.0,-99.9,-100.00,SE,140,3.0,6.0,-999,-99.99,,,-99.99,,2013-01-28 21:12:00,
2013-01-28 14:03:00,36.0,-99.9,-100.00,South,174,3.0,7.0,-999,-99.99,,,-99.99,,2013-01-28 22:03:00,
2013-01-28 14:12:00,36.0,-99.9,-100.00,South,174,3.0,7.0,-999,-99.99,,,-99.99,,2013-01-28 22:12:00,
2013-01-28 15:03:00,37.0,-99.9,-100.00,SE,124,3.0,5.0,-999,-99.99,,,-99.99,,2013-01-28 23:03:00,
2013-01-28 15:12:00,37.0,-99.9,-100.00,SE,124,3.0,5.0,-999,-99.99,,,-99.99,,2013-01-28 23:12:00,
2013-01-28 16:03:00,38.0,-99.9,-100.00,SSW,195,3.0,6.0,-999,-99.99,,,-99.99,,2013-01-29 00:03:00,
2013-01-28 16:13:00,38.0,-99.9,-100.00,SSW,195,3.0,6.0,-999,-99.99,,,-99.99,,2013-01-29 00:13:00,
2013-01-28 17:02:00,37.0,-99.9,-100.00,SW,221,3.0,5.0,-999,-99.99,,,-99.99,,2013-01-29 01:02:00,
2013-01-28 17:12:00,37.0,-99.9,-100.00,SW,221,3.0,5.0,-999,-99.99,,,-99.99,,2013-01-29 01:12:00,
2013-01-28 18:02:00,37.0,-99.9,-100.00,SW,233,5.0,8.0,-999,-99.99,,,-99.99,,2013-01-29 02:02:00,
2013-01-28 18:12:00,37.0,-99.9,-100.00,SW,233,5.0,8.0,-999,-99.99,,,-99.99,,2013-01-29 02:12:00,
2013-01-28 19:03:00,35.0,-99.9,-100.00,NW,325,3.0,7.0,-999,-99.99,,,-99.99,,2013-01-29 03:03:00,
2013-01-28 19:12:00,35.0,-99.9,-100.00,NW,325,3.0,7.0,-999,-99.99,,,-99.99,,2013-01-29 03:12:00,
2013-01-28 20:03:00,37.0,-99.9,-100.00,West,281,3.0,7.0,-999,-99.99,,,-99.99,,2013-01-29 04:03:00,
2013-01-28 20:12:00,37.0,-99.9,-100.00,West,281,3.0,7.0,-999,-99.99,,,-99.99,,2013-01-29 04:12:00,
2013-01-28 21:04:00,39.0,-99.9,-100.00,SW,232,3.0,5.0,-999,-99.99,,,-99.99,,2013-01-29 05:04:00,
2013-01-28 23:02:00,37.0,-99.9,-100.00,SW,225,6.0,8.0,-999,-99.99,,,-99.99,,2013-01-29 07:02:00,